Time;durP1;ratioP1;P1;durP2;ratioP2;P2;SDS_P1;SDS_P2;PMS_P1;PMS_P2;Temp;Humidity;BMP_temperature;BMP_pressure;BME280_temperature;BME280_humidity;BME280_pressure;Samples;Min_cycle;Max_cycle;Signal;HPM_P1;HPM_P2
2023/05/23 00:00:22;;;;;;;1.30;1.30;;;20.60;67.20;;;;;;5045025;28;20052;-77
2023/05/23 00:02:48;;;;;;;1.30;1.30;;;20.60;67.10;;;;;;5033365;28;20429;-76
2023/05/23 00:05:16;;;;;;;1.35;1.35;;;20.60;67.30;;;;;;5039906;28;20083;-77
2023/05/23 00:07:43;;;;;;;1.10;1.10;;;20.60;67.20;;;;;;5039771;28;20052;-76
2023/05/23 00:10:09;;;;;;;1.20;1.20;;;20.60;67.20;;;;;;5045651;28;20729;-77
2023/05/23 00:12:36;;;;;;;1.20;1.20;;;20.60;67.20;;;;;;5047041;28;20052;-76
2023/05/23 00:15:02;;;;;;;1.42;1.42;;;20.60;67.30;;;;;;5047628;28;20670;-77
2023/05/23 00:17:29;;;;;;;1.05;1.05;;;20.60;67.30;;;;;;5042959;28;20044;-77
2023/05/23 00:20:00;;;;;;;1.23;1.23;;;20.60;67.30;;;;;;5042915;28;20033;-78
2023/05/23 00:22:25;;;;;;;1.40;1.30;;;20.60;67.20;;;;;;5058442;28;20129;-77
2023/05/23 00:24:51;;;;;;;1.25;1.25;;;20.60;67.20;;;;;;5052636;28;20132;-78
2023/05/23 00:27:17;;;;;;;1.25;1.25;;;20.60;67.10;;;;;;5046234;28;20036;-78
2023/05/23 00:29:42;;;;;;;1.15;1.15;;;20.60;67.00;;;;;;5039526;28;20041;-78
2023/05/23 00:32:14;;;;;;;1.25;1.25;;;20.50;66.90;;;;;;5045673;28;20131;-78
2023/05/23 00:34:53;;;;;;;1.38;1.38;;;20.60;66.90;;;;;;5052774;28;20119;-77
2023/05/23 00:37:21;;;;;;;1.30;1.30;;;20.60;66.90;;;;;;5053708;28;20124;-77
2023/05/23 00:39:47;;;;;;;1.27;1.27;;;20.60;66.80;;;;;;5047953;28;20462;-77
2023/05/23 00:42:13;;;;;;;1.15;1.15;;;20.60;66.80;;;;;;5054013;28;20036;-78
2023/05/23 00:44:39;;;;;;;1.45;1.35;;;20.50;66.70;;;;;;5051748;28;20033;-78
2023/05/23 00:47:05;;;;;;;1.40;1.40;;;20.60;66.70;;;;;;5054869;28;20166;-77
2023/05/23 00:49:30;;;;;;;1.50;1.25;;;20.50;66.70;;;;;;5050970;28;20127;-78
2023/05/23 00:51:56;;;;;;;1.50;1.40;;;20.60;66.70;;;;;;5053981;28;20097;-78
2023/05/23 00:54:28;;;;;;;1.13;1.13;;;20.50;66.70;;;;;;5054574;28;20041;-78
2023/05/23 00:56:54;;;;;;;1.08;1.08;;;20.50;66.70;;;;;;5054512;28;20059;-78
2023/05/23 00:59:20;;;;;;;1.52;1.52;;;20.50;66.70;;;;;;5049700;28;20049;-78
2023/05/23 01:01:47;;;;;;;1.25;1.25;;;20.50;66.70;;;;;;5029231;28;20044;-78
2023/05/23 01:04:13;;;;;;;1.20;1.20;;;20.50;66.60;;;;;;5055938;28;20044;-78
2023/05/23 01:06:39;;;;;;;1.40;1.30;;;20.50;66.70;;;;;;5055850;28;20060;-78
2023/05/23 01:09:05;;;;;;;1.17;1.17;;;20.50;66.70;;;;;;5044273;28;20525;-78
2023/05/23 01:12:09;;;;;;;1.60;1.50;;;20.50;66.60;;;;;;5035178;28;20136;-77
2023/05/23 01:14:41;;;;;;;0.95;0.95;;;20.50;66.70;;;;;;5060429;28;20051;-77
2023/05/23 01:17:12;;;;;;;0.90;0.90;;;20.50;66.70;;;;;;5050701;28;20083;-77
2023/05/23 01:20:16;;;;;;;1.20;1.20;;;20.50;66.70;;;;;;5065273;28;20042;-77
2023/05/23 01:23:01;;;;;;;1.40;1.30;;;20.60;66.60;;;;;;4988835;28;20050;-78
2023/05/23 01:25:41;;;;;;;1.33;1.23;;;20.50;66.70;;;;;;4968880;28;20053;-77
2023/05/23 01:28:07;;;;;;;1.30;1.30;;;20.50;66.70;;;;;;4992920;28;20049;-77
2023/05/23 01:30:35;;;;;;;1.10;1.10;;;20.50;66.70;;;;;;4976676;28;20427;-77
2023/05/23 01:33:01;;;;;;;1.17;1.17;;;20.50;66.60;;;;;;4975228;28;20547;-77
2023/05/23 01:35:26;;;;;;;1.05;1.02;;;20.50;66.70;;;;;;4990118;28;20058;-77
2023/05/23 01:37:53;;;;;;;1.00;1.00;;;20.50;66.70;;;;;;4989189;28;20058;-77
2023/05/23 01:40:19;;;;;;;1.27;1.27;;;20.50;66.70;;;;;;4991541;28;20129;-77
2023/05/23 01:43:30;;;;;;;1.40;1.40;;;20.50;66.70;;;;;;4971884;28;20125;-77
2023/05/23 01:45:56;;;;;;;1.10;1.10;;;20.50;66.90;;;;;;4976154;28;20061;-77
2023/05/23 01:48:22;;;;;;;1.15;1.15;;;20.50;66.80;;;;;;4990554;28;20139;-77
2023/05/23 01:50:48;;;;;;;0.90;0.90;;;20.50;66.90;;;;;;4975091;28;20038;-77
2023/05/23 01:53:15;;;;;;;1.20;1.20;;;20.50;66.90;;;;;;4970355;28;20030;-78
2023/05/23 01:55:40;;;;;;;1.85;1.15;;;20.50;66.90;;;;;;4995985;28;20038;-78
2023/05/23 01:58:06;;;;;;;1.00;1.00;;;20.50;66.90;;;;;;5050384;28;20494;-78
2023/05/23 02:00:32;;;;;;;1.27;1.27;;;20.40;66.90;;;;;;5049830;28;20045;-78
2023/05/23 02:02:57;;;;;;;1.10;1.10;;;20.40;67.00;;;;;;5053149;28;20047;-78
2023/05/23 02:05:23;;;;;;;1.00;1.00;;;20.40;67.10;;;;;;5052869;28;20037;-77
2023/05/23 02:07:49;;;;;;;1.20;1.20;;;20.40;67.20;;;;;;5050574;28;20502;-78
2023/05/23 02:10:14;;;;;;;1.35;1.25;;;20.40;67.20;;;;;;5048842;28;20032;-78
2023/05/23 02:12:40;;;;;;;0.98;0.98;;;20.40;67.30;;;;;;5045639;28;20060;-77
2023/05/23 02:15:07;;;;;;;1.00;1.00;;;20.40;67.30;;;;;;5047685;28;20045;-78
2023/05/23 02:17:33;;;;;;;1.00;1.00;;;20.40;67.30;;;;;;5043651;28;20049;-77
2023/05/23 02:19:58;;;;;;;1.38;1.38;;;20.40;67.30;;;;;;5048317;28;20049;-78
2023/05/23 02:22:26;;;;;;;1.25;1.15;;;20.40;67.40;;;;;;5053877;28;20060;-77
2023/05/23 02:24:52;;;;;;;1.05;1.05;;;20.40;67.40;;;;;;5051961;28;20069;-77
2023/05/23 02:27:20;;;;;;;1.10;1.10;;;20.40;67.50;;;;;;5058032;28;20131;-77
2023/05/23 02:30:05;;;;;;;1.48;1.45;;;20.40;67.50;;;;;;5048355;28;20033;-78
2023/05/23 02:32:37;;;;;;;1.00;1.00;;;20.40;67.60;;;;;;5046564;28;20056;-77
2023/05/23 02:35:09;;;;;;;0.95;0.95;;;20.40;67.40;;;;;;5039335;28;20449;-77
2023/05/23 02:37:35;;;;;;;1.10;1.10;;;20.40;67.50;;;;;;5049768;28;20405;-77
2023/05/23 02:40:00;;;;;;;1.20;1.20;;;20.40;67.50;;;;;;5044640;28;20040;-78
2023/05/23 02:42:26;;;;;;;1.02;1.02;;;20.40;67.50;;;;;;5046142;28;20048;-78
2023/05/23 02:44:52;;;;;;;1.40;1.30;;;20.40;67.50;;;;;;5052123;28;20048;-77
2023/05/23 02:47:17;;;;;;;1.10;1.10;;;20.40;67.50;;;;;;5050174;28;20033;-77
2023/05/23 02:49:43;;;;;;;1.00;1.00;;;20.40;67.50;;;;;;5051793;28;20047;-78
2023/05/23 02:52:09;;;;;;;0.88;0.88;;;20.40;67.50;;;;;;5053377;28;20049;-78
2023/05/23 02:54:34;;;;;;;1.15;1.15;;;20.40;67.50;;;;;;5047613;28;20051;-77
2023/05/23 02:57:07;;;;;;;1.20;1.20;;;20.40;67.60;;;;;;5039795;28;20033;-77
2023/05/23 02:59:42;;;;;;;1.20;1.20;;;20.40;67.50;;;;;;4953441;28;20516;-77
2023/05/23 03:02:07;;;;;;;1.20;1.20;;;20.40;67.60;;;;;;5020678;28;20076;-77
2023/05/23 03:04:33;;;;;;;0.90;0.90;;;20.40;67.50;;;;;;5051596;28;20421;-77
2023/05/23 03:06:58;;;;;;;0.90;0.90;;;20.40;67.50;;;;;;5044173;28;20498;-77
2023/05/23 03:09:26;;;;;;;1.23;1.23;;;20.40;67.60;;;;;;5046037;28;20992;-77
2023/05/23 03:11:51;;;;;;;1.10;1.10;;;20.40;67.60;;;;;;5043884;28;20052;-77
2023/05/23 03:14:17;;;;;;;1.33;1.33;;;20.40;67.70;;;;;;5044888;28;20042;-78
2023/05/23 03:16:44;;;;;;;1.20;1.20;;;20.40;67.60;;;;;;5032635;28;20047;-77
2023/05/23 03:19:09;;;;;;;0.95;0.95;;;20.40;67.60;;;;;;5045612;28;20561;-77
2023/05/23 03:21:35;;;;;;;1.20;1.20;;;20.40;67.60;;;;;;5040123;28;20048;-77
2023/05/23 03:24:00;;;;;;;1.25;1.23;;;20.40;67.60;;;;;;5049647;28;21041;-77
2023/05/23 03:26:26;;;;;;;1.00;1.00;;;20.40;67.60;;;;;;5048980;28;20441;-77
2023/05/23 03:28:52;;;;;;;1.20;1.20;;;20.30;67.50;;;;;;5051236;28;20498;-77
2023/05/23 03:31:17;;;;;;;0.80;0.80;;;20.40;67.50;;;;;;5050346;28;20049;-77
2023/05/23 03:33:43;;;;;;;1.23;1.23;;;20.40;67.50;;;;;;5048067;28;20033;-78
2023/05/23 03:36:08;;;;;;;1.23;1.23;;;20.40;67.50;;;;;;5041788;28;20040;-77
2023/05/23 03:38:34;;;;;;;1.20;1.20;;;20.40;67.50;;;;;;5050351;28;20045;-77
2023/05/23 03:41:00;;;;;;;1.25;1.25;;;20.40;67.50;;;;;;5051714;28;20131;-77
2023/05/23 03:43:25;;;;;;;1.17;1.17;;;20.40;68.30;;;;;;5049907;28;20495;-78
2023/05/23 03:45:51;;;;;;;1.00;1.00;;;20.30;67.50;;;;;;5050042;28;20040;-77
2023/05/23 03:48:17;;;;;;;1.20;1.20;;;20.40;67.60;;;;;;5046864;28;20614;-77
2023/05/23 03:50:42;;;;;;;1.00;1.00;;;20.40;67.50;;;;;;5052657;28;20047;-77
2023/05/23 03:53:08;;;;;;;0.95;0.93;;;20.30;67.50;;;;;;5051570;28;20049;-78
2023/05/23 03:55:34;;;;;;;1.10;1.10;;;20.40;67.50;;;;;;5053411;28;20125;-78
2023/05/23 03:57:59;;;;;;;1.10;1.10;;;20.30;67.50;;;;;;5042816;28;20047;-77
2023/05/23 04:00:25;;;;;;;1.00;1.00;;;20.30;67.50;;;;;;5043564;28;20970;-77
2023/05/23 04:02:51;;;;;;;1.00;1.00;;;20.30;67.40;;;;;;5050511;28;20075;-77
2023/05/23 04:05:17;;;;;;;1.00;1.00;;;20.30;67.40;;;;;;5042273;28;20068;-77
2023/05/23 04:07:42;;;;;;;1.17;1.17;;;20.30;67.40;;;;;;5032359;28;20040;-78
2023/05/23 04:10:08;;;;;;;0.90;0.90;;;20.30;67.60;;;;;;5045708;28;20049;-77
2023/05/23 04:12:34;;;;;;;1.10;1.10;;;20.30;67.40;;;;;;5043093;28;20062;-77
2023/05/23 04:15:00;;;;;;;2.00;1.45;;;20.30;67.50;;;;;;5051939;28;20052;-77
2023/05/23 04:17:28;;;;;;;1.20;1.20;;;20.30;67.50;;;;;;5032797;28;20429;-77
2023/05/23 04:19:53;;;;;;;1.02;1.02;;;20.30;67.50;;;;;;5029311;28;20047;-77
2023/05/23 04:22:19;;;;;;;1.05;1.05;;;20.30;67.50;;;;;;5050070;28;20037;-77
2023/05/23 04:24:48;;;;;;;1.10;1.10;;;20.30;67.50;;;;;;5040768;28;20080;-77
2023/05/23 04:27:26;;;;;;;1.20;1.20;;;20.30;67.50;;;;;;5048312;28;20057;-78
2023/05/23 04:29:51;;;;;;;1.10;1.10;;;20.30;67.50;;;;;;5049485;28;20456;-77
2023/05/23 04:32:18;;;;;;;1.10;1.10;;;20.30;68.30;;;;;;5046152;28;20551;-78
2023/05/23 04:34:44;;;;;;;1.27;1.27;;;20.30;68.30;;;;;;5049934;28;20072;-77
2023/05/23 04:37:10;;;;;;;0.80;0.80;;;20.30;67.50;;;;;;5045812;28;20060;-77
2023/05/23 04:39:36;;;;;;;1.42;1.38;;;20.30;67.60;;;;;;4988298;28;20104;-77
2023/05/23 04:42:01;;;;;;;1.35;1.35;;;20.30;67.50;;;;;;5049105;28;20460;-78
2023/05/23 04:44:37;;;;;;;1.15;1.15;;;20.30;67.50;;;;;;5035817;28;20526;-77
2023/05/23 04:47:03;;;;;;;1.10;0.95;;;20.30;67.50;;;;;;5043301;28;20052;-77
2023/05/23 04:49:28;;;;;;;1.15;1.15;;;20.30;67.50;;;;;;5048808;28;20097;-77
2023/05/23 04:51:54;;;;;;;0.93;0.93;;;20.30;67.50;;;;;;5049851;28;20052;-77
2023/05/23 04:54:30;;;;;;;1.10;1.10;;;20.30;68.20;;;;;;5046059;28;20040;-77
2023/05/23 04:56:57;;;;;;;1.10;1.10;;;20.30;67.50;;;;;;5050185;28;20048;-78
2023/05/23 04:59:31;;;;;;;0.90;0.90;;;20.30;67.60;;;;;;4670023;28;10000329;-78
2023/05/23 05:01:57;;;;;;;1.30;1.08;;;20.30;67.20;;;;;;5043997;28;20799;-77
2023/05/23 05:04:23;;;;;;;0.80;0.80;;;20.30;67.20;;;;;;5049241;28;20037;-77
2023/05/23 05:06:48;;;;;;;1.05;1.05;;;20.30;67.40;;;;;;5046504;28;20152;-77
2023/05/23 05:09:14;;;;;;;1.30;1.20;;;20.30;67.60;;;;;;5048913;28;20064;-77
2023/05/23 05:11:49;;;;;;;1.10;1.10;;;20.30;67.60;;;;;;5050374;28;20048;-77
2023/05/23 05:14:15;;;;;;;1.08;1.08;;;20.30;67.50;;;;;;5046150;28;20056;-78
2023/05/23 05:16:41;;;;;;;0.98;0.98;;;20.30;67.60;;;;;;5049313;28;20084;-78
2023/05/23 05:19:07;;;;;;;1.50;1.50;;;20.30;67.50;;;;;;5049948;28;20414;-78
2023/05/23 05:21:32;;;;;;;0.95;0.95;;;20.30;67.50;;;;;;5036164;28;20038;-78
2023/05/23 05:23:58;;;;;;;1.05;1.05;;;20.30;67.50;;;;;;5050395;28;20037;-78
2023/05/23 05:26:25;;;;;;;1.02;1.02;;;20.30;67.40;;;;;;5047884;28;20129;-78
2023/05/23 05:28:51;;;;;;;1.08;1.08;;;20.30;67.50;;;;;;5046269;28;20041;-77
2023/05/23 05:31:17;;;;;;;1.60;1.30;;;20.30;67.40;;;;;;5048562;28;20561;-78
2023/05/23 05:33:44;;;;;;;1.23;1.23;;;20.30;67.40;;;;;;5046589;28;20061;-77
2023/05/23 05:36:10;;;;;;;1.70;1.60;;;20.30;67.40;;;;;;5046616;28;20025;-78
2023/05/23 05:38:35;;;;;;;2.55;1.17;;;20.30;67.50;;;;;;5051306;28;20048;-79
2023/05/23 05:41:01;;;;;;;1.05;1.05;;;20.30;67.30;;;;;;5049872;28;20610;-79
2023/05/23 05:43:27;;;;;;;1.20;1.20;;;20.30;67.20;;;;;;5056493;28;20051;-78
2023/05/23 05:45:52;;;;;;;1.20;1.10;;;20.30;67.00;;;;;;5044987;28;20502;-79
2023/05/23 05:48:18;;;;;;;1.10;1.10;;;20.30;67.10;;;;;;5051696;28;20048;-79
2023/05/23 05:50:44;;;;;;;1.20;1.20;;;20.40;67.10;;;;;;5050366;28;20542;-78
2023/05/23 05:53:12;;;;;;;1.10;1.10;;;20.30;67.10;;;;;;5051607;28;20044;-77
2023/05/23 05:55:38;;;;;;;1.00;1.00;;;20.40;67.20;;;;;;5051012;28;20048;-77
2023/05/23 05:58:04;;;;;;;1.27;1.20;;;20.40;67.20;;;;;;5033991;28;20452;-76
2023/05/23 06:00:29;;;;;;;1.67;1.58;;;20.40;67.10;;;;;;5029125;28;20040;-78
2023/05/23 06:02:56;;;;;;;2.85;2.40;;;20.40;64.40;;;;;;5045244;28;20109;-78
2023/05/23 06:05:22;;;;;;;3.05;2.85;;;20.30;64.20;;;;;;5044963;28;20036;-78
2023/05/23 06:07:48;;;;;;;2.80;2.55;;;20.10;62.80;;;;;;5050548;28;20045;-78
2023/05/23 06:10:14;;;;;;;3.58;3.10;;;20.00;62.90;;;;;;5053213;28;20430;-77
2023/05/23 06:12:39;;;;;;;3.40;2.92;;;19.90;62.80;;;;;;5050804;28;20049;-78
2023/05/23 06:15:06;;;;;;;3.80;2.97;;;19.90;63.00;;;;;;5047513;28;20044;-77
2023/05/23 06:17:31;;;;;;;3.10;2.85;;;19.80;62.90;;;;;;5047558;28;20182;-78
2023/05/23 06:19:57;;;;;;;4.35;3.08;;;19.70;62.70;;;;;;5036870;28;20565;-79
2023/05/23 06:22:22;;;;;;;3.60;3.30;;;19.70;63.30;;;;;;5056837;28;20048;-78
2023/05/23 06:24:48;;;;;;;4.22;3.28;;;19.70;62.80;;;;;;5051337;28;20041;-79
2023/05/23 06:27:14;;;;;;;3.10;2.90;;;19.70;62.70;;;;;;5046934;28;20041;-78
2023/05/23 06:29:39;;;;;;;3.42;2.97;;;19.70;62.80;;;;;;5049973;28;20068;-77
2023/05/23 06:32:05;;;;;;;3.40;3.10;;;19.60;63.00;;;;;;5047415;28;20421;-77
2023/05/23 06:34:31;;;;;;;3.42;3.13;;;19.60;63.50;;;;;;5049536;28;20049;-77
2023/05/23 06:36:56;;;;;;;3.33;3.03;;;19.50;63.30;;;;;;5046759;28;20064;-76
2023/05/23 06:39:22;;;;;;;3.00;2.80;;;19.60;63.80;;;;;;5049169;28;20125;-76
2023/05/23 06:41:47;;;;;;;4.38;2.40;;;19.60;63.60;;;;;;5052841;28;20080;-77
2023/05/23 06:44:13;;;;;;;3.03;2.72;;;19.70;63.70;;;;;;5051362;28;20041;-77
2023/05/23 06:46:39;;;;;;;2.75;2.53;;;19.70;63.60;;;;;;5055067;28;20138;-77
2023/05/23 06:49:05;;;;;;;2.83;2.63;;;19.80;63.60;;;;;;5051403;28;20045;-77
2023/05/23 06:51:30;;;;;;;2.30;2.10;;;19.80;63.60;;;;;;5050387;28;20133;-77
2023/05/23 06:53:56;;;;;;;3.95;2.33;;;19.90;63.50;;;;;;5033051;28;20532;-77
2023/05/23 06:56:22;;;;;;;2.78;2.63;;;19.90;63.40;;;;;;5050510;28;20037;-77
2023/05/23 06:58:48;;;;;;;2.72;2.33;;;19.90;63.50;;;;;;5049049;28;20060;-77
2023/05/23 07:01:13;;;;;;;2.53;2.42;;;19.90;63.60;;;;;;5056598;28;20048;-77
2023/05/23 07:03:40;;;;;;;2.25;2.05;;;20.00;63.70;;;;;;5053111;28;20048;-77
2023/05/23 07:06:06;;;;;;;2.20;2.10;;;20.00;63.90;;;;;;5051711;28;20045;-77
2023/05/23 07:08:32;;;;;;;2.80;2.60;;;20.00;64.00;;;;;;5050552;28;20114;-76
2023/05/23 07:10:58;;;;;;;2.22;2.13;;;20.00;64.00;;;;;;5049804;28;20805;-77
2023/05/23 07:13:23;;;;;;;2.72;2.53;;;20.00;64.00;;;;;;5053745;28;20669;-77
2023/05/23 07:15:49;;;;;;;2.28;2.10;;;20.00;64.00;;;;;;5051816;28;20115;-77
2023/05/23 07:18:14;;;;;;;4.45;2.30;;;20.00;64.10;;;;;;5049102;28;20032;-77
2023/05/23 07:20:40;;;;;;;2.33;2.22;;;20.00;64.20;;;;;;5046770;28;20041;-77
2023/05/23 07:23:05;;;;;;;2.63;2.25;;;20.00;64.20;;;;;;5046732;28;20118;-77
2023/05/23 07:25:31;;;;;;;2.00;1.90;;;20.00;64.20;;;;;;5052636;28;20048;-77
2023/05/23 07:27:56;;;;;;;2.42;2.30;;;20.00;64.30;;;;;;5046744;28;20516;-77
2023/05/23 07:30:22;;;;;;;2.08;1.90;;;20.00;64.40;;;;;;5048553;28;20115;-77
2023/05/23 07:32:48;;;;;;;1.60;1.50;;;20.00;64.40;;;;;;5052335;28;20097;-77
2023/05/23 07:35:14;;;;;;;1.90;1.80;;;20.10;64.40;;;;;;5049200;28;20041;-77
2023/05/23 07:37:40;;;;;;;1.90;1.80;;;20.10;64.40;;;;;;5053023;28;20453;-77
2023/05/23 07:40:09;;;;;;;2.35;1.90;;;20.10;64.40;;;;;;5050850;28;20045;-77
2023/05/23 07:42:35;;;;;;;1.75;1.65;;;20.10;64.40;;;;;;5049875;28;20132;-78
2023/05/23 07:45:00;;;;;;;2.20;2.00;;;20.10;64.40;;;;;;5051244;28;20128;-77
2023/05/23 07:47:26;;;;;;;1.80;1.70;;;20.10;64.40;;;;;;5051618;28;20517;-77
2023/05/23 07:49:52;;;;;;;2.45;1.98;;;20.10;64.40;;;;;;5049521;28;20037;-77
2023/05/23 07:52:18;;;;;;;2.00;1.90;;;20.20;64.60;;;;;;5054641;28;20416;-77
2023/05/23 07:54:43;;;;;;;1.90;1.80;;;20.20;64.50;;;;;;5053229;28;20051;-77
2023/05/23 07:57:09;;;;;;;2.10;2.00;;;20.20;64.50;;;;;;5053916;28;20028;-77
2023/05/23 07:59:35;;;;;;;2.30;2.20;;;20.20;64.60;;;;;;5048158;28;20498;-77
2023/05/23 08:02:01;;;;;;;1.83;1.73;;;20.20;64.60;;;;;;5049795;28;20041;-77
2023/05/23 08:04:27;;;;;;;2.17;1.55;;;20.20;64.70;;;;;;5053842;28;20032;-77
2023/05/23 08:06:54;;;;;;;1.52;1.48;;;20.20;64.80;;;;;;5045285;28;20045;-77
2023/05/23 08:09:20;;;;;;;1.73;1.63;;;20.20;64.80;;;;;;5045840;28;20189;-77
2023/05/23 08:11:45;;;;;;;1.90;1.80;;;20.20;64.90;;;;;;5046206;28;20517;-77
2023/05/23 08:14:11;;;;;;;1.85;1.75;;;20.20;65.00;;;;;;5050077;28;20061;-77
2023/05/23 08:16:36;;;;;;;1.70;1.60;;;20.20;64.90;;;;;;5057429;28;20045;-77
2023/05/23 08:19:02;;;;;;;1.50;1.40;;;20.20;65.00;;;;;;5054062;28;20049;-77
2023/05/23 08:21:28;;;;;;;1.75;1.65;;;20.30;65.10;;;;;;5050226;28;20060;-77
2023/05/23 08:23:54;;;;;;;1.20;1.20;;;20.30;66.00;;;;;;5050357;28;20106;-77
2023/05/23 08:26:20;;;;;;;2.00;1.60;;;20.30;65.20;;;;;;5053261;28;20045;-77
2023/05/23 08:28:46;;;;;;;1.75;1.65;;;20.30;65.40;;;;;;5048868;28;20507;-77
2023/05/23 08:31:11;;;;;;;1.63;1.55;;;20.30;65.40;;;;;;5050936;28;20039;-77
2023/05/23 08:33:37;;;;;;;1.88;1.77;;;20.30;65.50;;;;;;5055211;28;20080;-77
2023/05/23 08:36:03;;;;;;;2.20;1.80;;;20.30;65.60;;;;;;5055443;28;20127;-77
2023/05/23 08:38:28;;;;;;;1.55;1.45;;;20.30;65.50;;;;;;5051993;28;20538;-77
2023/05/23 08:40:54;;;;;;;1.77;1.67;;;20.30;65.50;;;;;;5056552;28;20453;-77
2023/05/23 08:43:19;;;;;;;1.25;1.25;;;20.30;65.40;;;;;;5059111;28;20119;-77
2023/05/23 08:45:45;;;;;;;1.70;1.60;;;20.30;65.60;;;;;;5039339;28;20087;-77
2023/05/23 08:48:12;;;;;;;2.08;1.90;;;20.30;65.50;;;;;;5054747;28;20112;-77
2023/05/23 08:50:39;;;;;;;1.80;1.70;;;20.40;65.50;;;;;;5053488;28;20033;-77
2023/05/23 08:53:07;;;;;;;1.55;1.50;;;20.40;65.70;;;;;;5042396;28;20545;-77
2023/05/23 08:55:33;;;;;;;1.35;1.35;;;20.40;65.60;;;;;;5053581;28;20397;-77
2023/05/23 08:57:59;;;;;;;1.80;1.70;;;20.40;65.60;;;;;;5039585;28;20510;-77
2023/05/23 09:00:25;;;;;;;1.70;1.60;;;20.40;65.70;;;;;;5052820;28;20445;-77
2023/05/23 09:02:51;;;;;;;1.80;1.70;;;20.40;65.60;;;;;;5038017;28;20054;-77
2023/05/23 09:05:16;;;;;;;1.60;1.50;;;20.40;65.90;;;;;;5049531;28;20026;-77
2023/05/23 09:07:43;;;;;;;1.80;1.70;;;20.40;65.60;;;;;;5045140;28;20040;-77
2023/05/23 09:10:09;;;;;;;1.85;1.75;;;20.40;65.70;;;;;;5066568;28;20048;-77
2023/05/23 09:12:38;;;;;;;1.50;1.42;;;20.40;65.70;;;;;;5051017;28;20052;-77
2023/05/23 09:15:08;;;;;;;1.98;1.60;;;20.40;65.70;;;;;;5038278;28;20838;-77
2023/05/23 09:17:33;;;;;;;1.92;1.83;;;20.40;65.70;;;;;;5054609;28;20047;-77
2023/05/23 09:19:59;;;;;;;2.25;1.67;;;20.40;65.70;;;;;;5057541;28;20041;-77
2023/05/23 09:22:26;;;;;;;1.80;1.70;;;20.40;65.80;;;;;;5056204;28;20078;-77
2023/05/23 09:24:52;;;;;;;1.90;1.80;;;20.50;65.80;;;;;;5052964;28;20041;-77
2023/05/23 09:27:18;;;;;;;1.67;1.65;;;20.50;65.90;;;;;;5056309;28;20132;-77
2023/05/23 09:29:46;;;;;;;1.65;1.55;;;20.50;65.90;;;;;;5053158;28;20132;-77
2023/05/23 09:32:12;;;;;;;1.77;1.67;;;20.40;66.00;;;;;;5036041;28;20537;-77
2023/05/23 09:34:56;;;;;;;1.80;1.70;;;20.50;66.80;;;;;;5055025;28;20029;-77
2023/05/23 09:37:38;;;;;;;1.35;1.35;;;20.50;66.00;;;;;;5057097;28;20041;-77
2023/05/23 09:40:10;;;;;;;1.40;1.40;;;20.50;66.10;;;;;;5050674;28;20444;-77
2023/05/23 09:42:41;;;;;;;1.58;1.48;;;20.50;66.10;;;;;;5037632;28;20465;-77
2023/05/23 09:45:06;;;;;;;1.73;1.50;;;20.50;66.20;;;;;;5051884;28;20036;-77
2023/05/23 09:47:32;;;;;;;1.70;1.60;;;20.50;67.10;;;;;;5052078;28;20098;-77
2023/05/23 09:49:58;;;;;;;1.42;1.40;;;20.50;66.10;;;;;;5055716;28;20908;-77
2023/05/23 09:52:23;;;;;;;1.42;1.33;;;20.50;66.30;;;;;;5065132;28;20049;-77
2023/05/23 09:54:49;;;;;;;1.30;1.30;;;20.50;66.10;;;;;;5050817;28;20040;-77
2023/05/23 09:57:16;;;;;;;1.60;1.50;;;20.50;66.20;;;;;;5049414;28;20098;-77
2023/05/23 09:59:55;;;;;;;1.50;1.48;;;20.50;66.30;;;;;;5041391;28;20060;-78
2023/05/23 10:02:46;;;;;;;1.40;1.30;;;20.50;66.20;;;;;;5038677;28;20041;-77
2023/05/23 10:05:14;;;;;;;1.73;1.63;;;20.50;66.30;;;;;;5045191;28;20422;-77
2023/05/23 10:07:42;;;;;;;1.55;1.50;;;20.50;66.30;;;;;;5046635;28;20052;-78
2023/05/23 10:10:08;;;;;;;1.70;1.60;;;20.50;66.20;;;;;;5015514;28;20056;-78
2023/05/23 10:12:45;;;;;;;1.90;1.80;;;20.50;66.30;;;;;;5017969;28;20049;-78
2023/05/23 10:15:12;;;;;;;1.40;1.30;;;20.50;66.30;;;;;;5051278;28;20502;-75
2023/05/23 10:17:46;;;;;;;1.33;1.33;;;20.50;66.30;;;;;;4699297;28;10000134;-76
2023/05/23 10:20:14;;;;;;;1.70;1.60;;;20.50;66.40;;;;;;5052043;28;20037;-76
2023/05/23 10:22:40;;;;;;;1.63;1.60;;;20.50;66.30;;;;;;5031593;28;20574;-75
2023/05/23 10:25:07;;;;;;;1.88;1.67;;;20.50;66.30;;;;;;5064833;28;20182;-77
2023/05/23 10:27:33;;;;;;;1.60;1.50;;;20.50;66.30;;;;;;5046984;28;20052;-77
2023/05/23 10:29:58;;;;;;;1.75;1.65;;;20.50;66.30;;;;;;5052728;28;20048;-76
2023/05/23 10:32:25;;;;;;;1.50;1.50;;;20.50;67.10;;;;;;5029807;28;20043;-76
2023/05/23 10:35:07;;;;;;;1.55;1.48;;;20.60;66.30;;;;;;5039312;28;20406;-77
2023/05/23 10:37:44;;;;;;;1.60;1.50;;;20.60;66.30;;;;;;5072471;28;20131;-76
2023/05/23 10:40:25;;;;;;;1.42;1.42;;;20.60;66.10;;;;;;5045676;28;20760;-75
2023/05/23 10:43:01;;;;;;;1.85;1.75;;;20.60;66.20;;;;;;5062608;28;20041;-75
2023/05/23 10:45:27;;;;;;;1.40;1.40;;;20.60;66.20;;;;;;5020739;28;20399;-75
2023/05/23 10:47:53;;;;;;;1.58;1.58;;;20.60;66.20;;;;;;5045753;28;20273;-76
2023/05/23 10:50:35;;;;;;;1.73;1.63;;;20.60;66.10;;;;;;5049803;28;20052;-76
2023/05/23 10:53:02;;;;;;;1.60;1.50;;;20.60;66.20;;;;;;5032316;28;20136;-75
2023/05/23 10:55:31;;;;;;;1.73;1.63;;;20.60;66.20;;;;;;5051520;28;20759;-75
2023/05/23 10:58:17;;;;;;;1.58;1.58;;;20.60;66.20;;;;;;5042381;28;20040;-75
2023/05/23 11:00:53;;;;;;;1.48;1.40;;;20.60;66.10;;;;;;5036179;28;20049;-76
2023/05/23 11:03:18;;;;;;;1.90;1.80;;;20.60;66.20;;;;;;5053531;28;20032;-76
2023/05/23 11:05:51;;;;;;;1.60;1.52;;;20.60;65.90;;;;;;5048303;28;20039;-76
2023/05/23 11:08:18;;;;;;;1.35;1.35;;;20.70;65.90;;;;;;5056193;28;20067;-76
2023/05/23 11:10:59;;;;;;;1.42;1.42;;;20.60;65.80;;;;;;5018659;28;20458;-76
2023/05/23 11:13:25;;;;;;;1.80;1.67;;;20.60;66.70;;;;;;5053997;28;20071;-77
2023/05/23 11:15:50;;;;;;;1.60;1.60;;;20.60;65.90;;;;;;5051147;28;20120;-77
2023/05/23 11:18:26;;;;;;;1.83;1.73;;;20.60;65.90;;;;;;5028371;28;20033;-77
2023/05/23 11:21:01;;;;;;;1.70;1.60;;;20.70;65.80;;;;;;5032989;28;20037;-78
2023/05/23 11:23:39;;;;;;;1.90;1.80;;;20.70;65.80;;;;;;5063715;28;20030;-78
2023/05/23 11:26:32;;;;;;;1.70;1.60;;;20.70;65.80;;;;;;5049867;28;20056;-78
2023/05/23 11:28:58;;;;;;;1.50;1.48;;;20.70;65.70;;;;;;5043674;28;20041;-78
2023/05/23 11:31:24;;;;;;;1.70;1.60;;;20.80;65.80;;;;;;5041912;28;20041;-78
2023/05/23 11:33:54;;;;;;;1.70;1.60;;;20.70;65.70;;;;;;5050468;28;20045;-78
2023/05/23 11:36:22;;;;;;;1.65;1.60;;;20.70;65.70;;;;;;5042170;28;20124;-78
2023/05/23 11:38:52;;;;;;;1.70;1.60;;;20.70;65.80;;;;;;5049695;28;20041;-78
2023/05/23 11:41:23;;;;;;;1.48;1.38;;;20.70;65.90;;;;;;5043714;28;20037;-78
2023/05/23 11:43:54;;;;;;;2.20;1.63;;;20.70;66.00;;;;;;5045336;28;20053;-78
2023/05/23 11:46:20;;;;;;;1.92;1.80;;;20.70;65.90;;;;;;5045950;28;20517;-78
2023/05/23 11:48:50;;;;;;;1.65;1.50;;;20.70;66.00;;;;;;5018191;28;20025;-78
2023/05/23 11:51:28;;;;;;;1.55;1.45;;;20.70;66.00;;;;;;5013553;28;20039;-78
2023/05/23 11:54:01;;;;;;;1.98;1.88;;;20.70;66.10;;;;;;5039422;28;20037;-78
2023/05/23 11:56:28;;;;;;;1.60;1.50;;;20.70;66.10;;;;;;5028816;28;20033;-78
2023/05/23 11:58:59;;;;;;;1.90;1.80;;;20.70;66.10;;;;;;5028517;28;20064;-78
2023/05/23 12:01:37;;;;;;;1.80;1.70;;;20.70;66.10;;;;;;5050336;28;20040;-78
2023/05/23 12:04:13;;;;;;;1.60;1.60;;;20.70;66.10;;;;;;5021541;28;20048;-78
2023/05/23 12:06:44;;;;;;;1.45;1.45;;;20.80;66.10;;;;;;5034719;28;20068;-78
2023/05/23 12:09:30;;;;;;;1.73;1.63;;;20.70;66.10;;;;;;5043292;28;20033;-78
2023/05/23 12:12:16;;;;;;;1.70;1.60;;;20.70;66.00;;;;;;5056038;28;20059;-78
2023/05/23 12:14:43;;;;;;;1.65;1.65;;;20.80;66.10;;;;;;5053641;28;20052;-78
2023/05/23 12:17:12;;;;;;;1.45;1.40;;;20.70;66.10;;;;;;5034315;28;20065;-78
2023/05/23 12:19:38;;;;;;;1.75;1.70;;;20.80;66.10;;;;;;5029941;28;21500;-78
2023/05/23 12:22:07;;;;;;;1.92;1.83;;;20.70;66.10;;;;;;5053068;28;20685;-78
2023/05/23 12:24:33;;;;;;;1.50;1.40;;;20.80;66.20;;;;;;5047589;28;20033;-78
2023/05/23 12:26:59;;;;;;;1.50;1.50;;;20.70;66.10;;;;;;5049628;28;20075;-78
2023/05/23 12:29:32;;;;;;;1.80;1.70;;;20.70;66.10;;;;;;5050892;28;20436;-78
2023/05/23 12:31:58;;;;;;;1.77;1.67;;;20.80;66.10;;;;;;5052804;28;20059;-78
2023/05/23 12:34:24;;;;;;;1.50;1.50;;;20.80;65.90;;;;;;5037225;28;20576;-78
2023/05/23 12:36:54;;;;;;;1.65;1.55;;;20.80;65.80;;;;;;5052083;28;20077;-78
2023/05/23 12:39:28;;;;;;;2.78;1.58;;;20.80;65.90;;;;;;5052580;28;20040;-78
2023/05/23 12:41:57;;;;;;;1.55;1.50;;;20.80;65.80;;;;;;5052380;28;20059;-78
2023/05/23 12:44:22;;;;;;;1.70;1.60;;;20.80;65.90;;;;;;5054048;28;20132;-78
2023/05/23 12:46:48;;;;;;;1.55;1.55;;;20.80;65.90;;;;;;5056538;28;20174;-78
2023/05/23 12:49:14;;;;;;;1.75;1.65;;;20.80;65.80;;;;;;5053675;28;20441;-78